Time;durP1;ratioP1;P1;durP2;ratioP2;P2;SDS_P1;SDS_P2;PMS_P1;PMS_P2;Temp;Humidity;BMP_temperature;BMP_pressure;BME280_temperature;BME280_humidity;BME280_pressure;Samples;Min_cycle;Max_cycle;Signal;HPM_P1;HPM_P2
2022/01/10 00:02:09;;;;;;;8.93;4.83;;;;;;;;;;5047132;28;20028;-74
2022/01/10 00:04:34;;;;;;;12.73;5.03;;;;;;;;;;5048431;28;20037;-74
2022/01/10 00:07:00;;;;;;;6.00;4.10;;;;;;;;;;5047087;28;20068;-74
2022/01/10 00:09:25;;;;;;;8.87;4.33;;;;;;;;;;5048663;28;20029;-73
2022/01/10 00:11:51;;;;;;;13.67;5.20;;;;;;;;;;5048285;28;20029;-75
2022/01/10 00:14:16;;;;;;;12.00;5.33;;;;;;;;;;5046755;28;20028;-74
2022/01/10 00:16:42;;;;;;;9.73;4.80;;;;;;;;;;5048346;28;20032;-75
2022/01/10 00:19:07;;;;;;;10.93;5.47;;;;;;;;;;5050353;28;20032;-74
2022/01/10 00:21:33;;;;;;;8.17;5.27;;;;;;;;;;5051440;28;20112;-74
2022/01/10 00:23:58;;;;;;;9.93;5.37;;;;;;;;;;5051884;28;20158;-75
2022/01/10 00:26:25;;;;;;;14.70;6.23;;;;;;;;;;5050019;28;20036;-73
2022/01/10 00:28:51;;;;;;;15.47;5.30;;;;;;;;;;5033525;28;20544;-74
2022/01/10 00:31:17;;;;;;;14.23;6.67;;;;;;;;;;5049914;28;20039;-74
2022/01/10 00:33:43;;;;;;;13.73;5.77;;;;;;;;;;5049931;28;20032;-75
2022/01/10 00:36:08;;;;;;;10.87;5.90;;;;;;;;;;5049871;28;20036;-75
2022/01/10 00:38:34;;;;;;;12.13;5.33;;;;;;;;;;5051347;28;20450;-74
2022/01/10 00:41:00;;;;;;;15.03;6.97;;;;;;;;;;5050533;28;20129;-74
2022/01/10 00:43:35;;;;;;;10.47;5.90;;;;;;;;;;5050892;28;20451;-74
2022/01/10 00:46:02;;;;;;;12.90;6.23;;;;;;;;;;5049945;28;20032;-74
2022/01/10 00:48:28;;;;;;;10.70;5.67;;;;;;;;;;5051373;28;20135;-73
2022/01/10 00:50:54;;;;;;;12.37;5.30;;;;;;;;;;5049673;28;20396;-75
2022/01/10 00:53:19;;;;;;;12.27;5.87;;;;;;;;;;5049762;28;20024;-74
2022/01/10 00:55:45;;;;;;;12.23;5.43;;;;;;;;;;5050313;28;20052;-75
2022/01/10 00:58:11;;;;;;;11.00;5.27;;;;;;;;;;5052372;28;20033;-73
2022/01/10 01:00:37;;;;;;;10.63;5.33;;;;;;;;;;5051741;28;20477;-74
2022/01/10 01:03:02;;;;;;;13.10;5.43;;;;;;;;;;5050931;28;20028;-74
2022/01/10 01:05:30;;;;;;;13.17;5.80;;;;;;;;;;5050546;28;20068;-75
2022/01/10 01:08:00;;;;;;;15.13;6.23;;;;;;;;;;5051233;28;20078;-74
2022/01/10 01:13:02;;;;;;;13.77;5.47;;;;;;;;;;5051249;28;20040;-75
2022/01/10 01:15:33;;;;;;;10.40;5.37;;;;;;;;;;5051012;28;20485;-75
2022/01/10 01:18:15;;;;;;;10.33;5.23;;;;;;;;;;5049663;28;20071;-75
2022/01/10 01:20:44;;;;;;;;;;;;;;;;;;5050942;28;20045;-74
2022/01/10 01:26:01;;;;;;;9.60;5.17;;;;;;;;;;5051148;28;20039;-74
2022/01/10 01:28:27;;;;;;;8.37;5.00;;;;;;;;;;5048454;28;20029;-74
2022/01/10 01:30:53;;;;;;;11.87;4.90;;;;;;;;;;5032535;28;20060;-74
2022/01/10 01:33:20;;;;;;;8.63;4.67;;;;;;;;;;5050326;28;20064;-74
2022/01/10 01:35:47;;;;;;;8.80;4.80;;;;;;;;;;5050307;28;20064;-74
2022/01/10 01:38:13;;;;;;;10.97;5.00;;;;;;;;;;5050472;28;20025;-74
2022/01/10 01:40:45;;;;;;;9.83;4.20;;;;;;;;;;5050172;28;20044;-75
2022/01/10 01:43:10;;;;;;;10.65;4.80;;;;;;;;;;5050257;28;20024;-74
2022/01/10 01:45:43;;;;;;;12.87;4.80;;;;;;;;;;5050212;28;20082;-74
2022/01/10 01:48:08;;;;;;;;;;;;;;;;;;5049112;28;20056;-74
2022/01/10 01:50:34;;;;;;;8.63;4.03;;;;;;;;;;5048306;28;20403;-75
2022/01/10 01:53:00;;;;;;;12.73;4.87;;;;;;;;;;5048967;28;20354;-74
2022/01/10 01:55:25;;;;;;;7.40;4.27;;;;;;;;;;5050039;28;20021;-74
2022/01/10 01:57:51;;;;;;;7.97;4.67;;;;;;;;;;5048715;28;20481;-73
2022/01/10 02:00:21;;;;;;;8.83;3.83;;;;;;;;;;5048507;28;20032;-74
2022/01/10 02:02:48;;;;;;;12.17;4.83;;;;;;;;;;5048736;28;20021;-74
2022/01/10 02:05:13;;;;;;;11.90;4.80;;;;;;;;;;5047082;28;20030;-74
2022/01/10 02:07:39;;;;;;;7.33;3.53;;;;;;;;;;5048469;28;20048;-74
2022/01/10 02:10:05;;;;;;;8.30;3.93;;;;;;;;;;5048283;28;20397;-74
2022/01/10 02:12:31;;;;;;;11.87;4.30;;;;;;;;;;5049441;28;20025;-74
2022/01/10 02:14:57;;;;;;;10.33;4.20;;;;;;;;;;5045090;28;20063;-74
2022/01/10 02:17:33;;;;;;;9.23;4.17;;;;;;;;;;5048545;28;20369;-74
2022/01/10 02:20:08;;;;;;;6.63;3.80;;;;;;;;;;5052642;28;20032;-74
2022/01/10 02:22:36;;;;;;;7.53;3.67;;;;;;;;;;5051101;28;20035;-74
2022/01/10 02:25:02;;;;;;;5.90;3.43;;;;;;;;;;5053181;28;20049;-74
2022/01/10 02:27:28;;;;;;;11.87;4.73;;;;;;;;;;5050392;28;20033;-74
2022/01/10 02:29:53;;;;;;;11.13;4.40;;;;;;;;;;5049526;28;20373;-74
2022/01/10 02:32:20;;;;;;;9.80;3.97;;;;;;;;;;5049045;28;20028;-74
2022/01/10 02:34:46;;;;;;;7.40;3.67;;;;;;;;;;5047869;28;20024;-74
2022/01/10 02:37:29;;;;;;;9.33;3.93;;;;;;;;;;5047701;28;20450;-73
2022/01/10 02:39:55;;;;;;;11.53;3.97;;;;;;;;;;5045400;28;20140;-74
2022/01/10 02:42:20;;;;;;;11.83;4.40;;;;;;;;;;5047396;28;20119;-74
2022/01/10 02:44:45;;;;;;;11.60;4.63;;;;;;;;;;5047958;28;20033;-74
2022/01/10 02:47:11;;;;;;;6.80;3.60;;;;;;;;;;5047915;28;20048;-73
2022/01/10 02:49:37;;;;;;;8.60;4.40;;;;;;;;;;5047709;28;20029;-75
2022/01/10 02:52:04;;;;;;;6.50;3.53;;;;;;;;;;5047764;28;20516;-74
2022/01/10 02:54:30;;;;;;;8.53;4.03;;;;;;;;;;5048743;28;20447;-74
2022/01/10 02:56:56;;;;;;;6.83;3.20;;;;;;;;;;5048780;28;20112;-74
2022/01/10 02:59:23;;;;;;;12.50;3.70;;;;;;;;;;5047233;28;20021;-74
2022/01/10 03:01:49;;;;;;;7.07;3.93;;;;;;;;;;5048769;28;20344;-75
2022/01/10 03:04:15;;;;;;;8.27;3.17;;;;;;;;;;5047858;28;20025;-74
2022/01/10 03:06:41;;;;;;;5.33;3.30;;;;;;;;;;5049160;28;20104;-74
2022/01/10 03:09:09;;;;;;;5.47;3.23;;;;;;;;;;5047550;28;20029;-74
2022/01/10 03:11:37;;;;;;;11.27;3.37;;;;;;;;;;5048525;28;20122;-74
2022/01/10 03:14:03;;;;;;;5.57;3.70;;;;;;;;;;5047442;28;20438;-75
2022/01/10 03:16:28;;;;;;;6.70;2.90;;;;;;;;;;5047110;28;20056;-74
2022/01/10 03:18:54;;;;;;;7.13;3.30;;;;;;;;;;5048800;28;20393;-74
2022/01/10 03:21:20;;;;;;;6.27;3.33;;;;;;;;;;5049098;28;20070;-74
2022/01/10 03:23:51;;;;;;;8.70;3.20;;;;;;;;;;5048631;28;20392;-74
2022/01/10 03:26:18;;;;;;;5.60;3.20;;;;;;;;;;5050644;28;20025;-74
2022/01/10 03:28:43;;;;;;;11.10;3.97;;;;;;;;;;5047683;28;20036;-74
2022/01/10 03:31:09;;;;;;;9.27;3.97;;;;;;;;;;5049743;28;20025;-74
2022/01/10 03:33:34;;;;;;;8.20;3.63;;;;;;;;;;5048235;28;20032;-74
2022/01/10 03:36:00;;;;;;;6.57;2.97;;;;;;;;;;5048078;28;20419;-74
2022/01/10 03:38:26;;;;;;;4.10;3.17;;;;;;;;;;5046125;28;20040;-74
2022/01/10 03:40:51;;;;;;;6.00;3.23;;;;;;;;;;5048632;28;20041;-74
2022/01/10 03:43:17;;;;;;;6.63;3.40;;;;;;;;;;5047868;28;20021;-74
2022/01/10 03:45:43;;;;;;;7.47;3.03;;;;;;;;;;5048408;28;20056;-73
2022/01/10 03:48:10;;;;;;;7.30;3.40;;;;;;;;;;5048506;28;20056;-74
2022/01/10 03:50:35;;;;;;;10.87;4.00;;;;;;;;;;5046618;28;20400;-73
2022/01/10 03:53:02;;;;;;;9.03;3.23;;;;;;;;;;5050680;28;20083;-74
2022/01/10 03:55:28;;;;;;;16.83;3.63;;;;;;;;;;5050809;28;20128;-73
2022/01/10 03:57:53;;;;;;;7.20;3.20;;;;;;;;;;5034634;28;20123;-74
2022/01/10 04:00:19;;;;;;;7.90;3.33;;;;;;;;;;5052286;28;20365;-75
2022/01/10 04:02:52;;;;;;;9.37;3.47;;;;;;;;;;5052321;28;20060;-74
2022/01/10 04:05:18;;;;;;;12.53;4.20;;;;;;;;;;5051712;28;20040;-74
2022/01/10 04:07:43;;;;;;;6.60;3.63;;;;;;;;;;5084683;28;20495;-74
2022/01/10 04:10:09;;;;;;;5.80;3.07;;;;;;;;;;5050354;28;20036;-74
2022/01/10 04:12:35;;;;;;;10.07;4.73;;;;;;;;;;5050429;28;20033;-74
2022/01/10 04:15:00;;;;;;;7.27;3.40;;;;;;;;;;5050316;28;20036;-74
2022/01/10 04:17:26;;;;;;;8.07;3.40;;;;;;;;;;5051928;28;20033;-75
2022/01/10 04:19:51;;;;;;;8.13;3.70;;;;;;;;;;5051915;28;20025;-73
2022/01/10 04:22:17;;;;;;;7.03;3.13;;;;;;;;;;5050359;28;20044;-74
2022/01/10 04:24:42;;;;;;;16.30;4.93;;;;;;;;;;5050744;28;20488;-75
2022/01/10 04:27:08;;;;;;;7.10;3.27;;;;;;;;;;5051708;28;20090;-74
2022/01/10 04:29:33;;;;;;;5.77;3.43;;;;;;;;;;5050254;28;20151;-75
2022/01/10 04:32:00;;;;;;;7.07;3.43;;;;;;;;;;5051531;28;20041;-74
2022/01/10 04:34:26;;;;;;;6.50;3.60;;;;;;;;;;5051133;28;20110;-73
2022/01/10 04:36:51;;;;;;;6.77;3.87;;;;;;;;;;5048864;28;20605;-74
2022/01/10 04:39:17;;;;;;;7.77;3.43;;;;;;;;;;5051895;28;20048;-74
2022/01/10 04:41:42;;;;;;;10.50;4.00;;;;;;;;;;5051276;28;20397;-75
2022/01/10 04:44:08;;;;;;;7.63;3.90;;;;;;;;;;5051335;28;20489;-74
2022/01/10 04:46:34;;;;;;;6.83;3.37;;;;;;;;;;5051168;28;20032;-73
2022/01/10 04:49:01;;;;;;;5.87;3.93;;;;;;;;;;5049962;28;20130;-74
2022/01/10 04:51:29;;;;;;;8.90;3.63;;;;;;;;;;5049788;28;20029;-74
2022/01/10 04:53:55;;;;;;;14.07;4.57;;;;;;;;;;5049970;28;20033;-75
2022/01/10 04:56:21;;;;;;;7.63;3.60;;;;;;;;;;5049408;28;20124;-74
2022/01/10 04:58:49;;;;;;;6.20;3.53;;;;;;;;;;5049800;28;20400;-74
2022/01/10 05:01:15;;;;;;;7.13;3.93;;;;;;;;;;5049693;28;20381;-74
2022/01/10 05:03:41;;;;;;;7.43;3.80;;;;;;;;;;5049645;28;20033;-74
2022/01/10 05:06:07;;;;;;;9.43;4.97;;;;;;;;;;5050734;28;20044;-74
2022/01/10 05:08:33;;;;;;;9.63;4.30;;;;;;;;;;5050840;28;20029;-74
2022/01/10 05:10:59;;;;;;;6.10;3.70;;;;;;;;;;5050911;28;20035;-74
2022/01/10 05:13:25;;;;;;;11.47;4.13;;;;;;;;;;5051400;28;20028;-75
2022/01/10 05:15:51;;;;;;;11.00;4.27;;;;;;;;;;5053381;28;20033;-75
2022/01/10 05:18:19;;;;;;;8.37;4.20;;;;;;;;;;5050938;28;20378;-74
2022/01/10 05:20:45;;;;;;;8.63;4.10;;;;;;;;;;5048928;28;20040;-74
2022/01/10 05:23:10;;;;;;;7.40;3.47;;;;;;;;;;5049699;28;20036;-74
2022/01/10 05:25:39;;;;;;;6.97;4.23;;;;;;;;;;5049206;28;20101;-74
2022/01/10 05:28:10;;;;;;;8.50;4.40;;;;;;;;;;5049244;28;20040;-74
2022/01/10 05:30:36;;;;;;;10.40;4.40;;;;;;;;;;5048707;28;20063;-75
2022/01/10 05:33:02;;;;;;;11.80;4.60;;;;;;;;;;5050532;28;20115;-75
2022/01/10 05:35:27;;;;;;;6.07;4.00;;;;;;;;;;5048893;28;20045;-74
2022/01/10 05:37:53;;;;;;;7.87;4.23;;;;;;;;;;5048783;28;20116;-76
2022/01/10 05:40:21;;;;;;;8.77;3.93;;;;;;;;;;5048799;28;20064;-74
2022/01/10 05:42:47;;;;;;;6.97;4.03;;;;;;;;;;5048382;28;20545;-73
2022/01/10 05:45:12;;;;;;;6.70;3.97;;;;;;;;;;5049064;28;20029;-74
2022/01/10 05:47:43;;;;;;;9.13;4.33;;;;;;;;;;5048415;28;20068;-75
2022/01/10 05:50:12;;;;;;;10.77;4.33;;;;;;;;;;5048554;28;20039;-74
2022/01/10 05:52:38;;;;;;;7.50;4.53;;;;;;;;;;5048386;28;20473;-75
2022/01/10 05:55:05;;;;;;;9.97;5.10;;;;;;;;;;5050226;28;20029;-75
2022/01/10 05:57:32;;;;;;;8.93;4.17;;;;;;;;;;5048274;28;20028;-74
2022/01/10 05:59:57;;;;;;;8.93;4.57;;;;;;;;;;5048229;28;20037;-74
2022/01/10 06:02:24;;;;;;;8.93;4.40;;;;;;;;;;5050159;28;20028;-73
2022/01/10 06:04:50;;;;;;;8.80;4.40;;;;;;;;;;5049742;28;20021;-76
2022/01/10 06:07:16;;;;;;;11.50;4.17;;;;;;;;;;5046400;28;20393;-75
2022/01/10 06:09:42;;;;;;;11.23;4.43;;;;;;;;;;5048755;28;20025;-74
2022/01/10 06:12:08;;;;;;;21.93;10.83;;;;;;;;;;5050574;28;20045;-75
2022/01/10 06:14:33;;;;;;;20.03;5.93;;;;;;;;;;5050211;28;20025;-74
2022/01/10 06:17:01;;;;;;;13.90;8.43;;;;;;;;;;5050582;28;20484;-75
2022/01/10 06:19:26;;;;;;;14.60;6.40;;;;;;;;;;5048952;28;20050;-75
2022/01/10 06:21:52;;;;;;;10.80;5.73;;;;;;;;;;5047698;28;20102;-73
2022/01/10 06:24:17;;;;;;;11.27;4.40;;;;;;;;;;5042635;28;20511;-75
2022/01/10 06:26:43;;;;;;;9.83;4.60;;;;;;;;;;5048592;28;20032;-75
2022/01/10 06:29:08;;;;;;;12.17;5.43;;;;;;;;;;5047600;28;20086;-74
2022/01/10 06:31:34;;;;;;;11.40;5.57;;;;;;;;;;5047338;28;20035;-74
2022/01/10 06:33:59;;;;;;;9.83;4.60;;;;;;;;;;5048865;28;20051;-75
2022/01/10 06:36:25;;;;;;;16.47;8.90;;;;;;;;;;5048551;28;20168;-74
2022/01/10 06:38:51;;;;;;;10.23;5.47;;;;;;;;;;5046346;28;20122;-74
2022/01/10 06:41:16;;;;;;;10.80;5.03;;;;;;;;;;5047188;28;20041;-75
2022/01/10 06:43:42;;;;;;;14.03;5.57;;;;;;;;;;5046977;28;20101;-74
2022/01/10 06:46:07;;;;;;;8.13;4.57;;;;;;;;;;5044474;28;20122;-75
2022/01/10 06:48:33;;;;;;;7.87;4.40;;;;;;;;;;5045826;28;20104;-74
2022/01/10 06:50:59;;;;;;;11.07;4.43;;;;;;;;;;5045122;28;20075;-74
2022/01/10 06:53:25;;;;;;;9.77;4.83;;;;;;;;;;5043416;28;20136;-74
2022/01/10 06:55:51;;;;;;;9.67;4.40;;;;;;;;;;5040031;28;20543;-75
2022/01/10 06:58:17;;;;;;;6.53;4.37;;;;;;;;;;5043649;28;20059;-75
2022/01/10 07:00:43;;;;;;;11.20;4.63;;;;;;;;;;5045860;28;20040;-76
2022/01/10 07:03:09;;;;;;;11.17;4.27;;;;;;;;;;5045557;28;20095;-74
2022/01/10 07:05:36;;;;;;;9.30;4.27;;;;;;;;;;5046022;28;20327;-75
2022/01/10 07:08:03;;;;;;;9.13;4.73;;;;;;;;;;5047718;28;20032;-74
2022/01/10 07:10:29;;;;;;;10.57;4.57;;;;;;;;;;5046208;28;20029;-74
2022/01/10 07:12:54;;;;;;;11.10;5.07;;;;;;;;;;5045670;28;20090;-75
2022/01/10 07:15:21;;;;;;;10.87;4.63;;;;;;;;;;5045173;28;20396;-75
2022/01/10 07:17:47;;;;;;;8.63;4.43;;;;;;;;;;5046350;28;20420;-76
2022/01/10 07:20:13;;;;;;;9.67;4.87;;;;;;;;;;5029240;28;20040;-73
2022/01/10 07:22:40;;;;;;;8.57;4.30;;;;;;;;;;5061086;28;20045;-73
2022/01/10 07:25:06;;;;;;;10.50;3.90;;;;;;;;;;5046553;28;20037;-74
2022/01/10 07:27:31;;;;;;;10.33;5.27;;;;;;;;;;5039897;28;20032;-74
2022/01/10 07:29:59;;;;;;;10.03;4.83;;;;;;;;;;5052295;28;20078;-74
2022/01/10 07:32:29;;;;;;;9.07;5.27;;;;;;;;;;5051867;28;20029;-74
2022/01/10 07:34:54;;;;;;;12.73;5.53;;;;;;;;;;5051958;28;20469;-74
2022/01/10 07:37:20;;;;;;;8.30;4.73;;;;;;;;;;5050634;28;20047;-74
2022/01/10 07:39:46;;;;;;;7.30;4.03;;;;;;;;;;5049452;28;20118;-76
2022/01/10 07:42:11;;;;;;;7.43;4.27;;;;;;;;;;5049107;28;20025;-73
2022/01/10 07:44:37;;;;;;;8.20;5.10;;;;;;;;;;5049727;28;20052;-74
2022/01/10 07:47:03;;;;;;;11.77;5.30;;;;;;;;;;5047873;28;20056;-74
2022/01/10 07:49:28;;;;;;;10.00;4.83;;;;;;;;;;5073980;28;20119;-74
2022/01/10 07:51:57;;;;;;;7.77;4.80;;;;;;;;;;5047693;28;20044;-75
2022/01/10 07:54:24;;;;;;;16.30;5.53;;;;;;;;;;5049248;28;20086;-74
2022/01/10 07:56:50;;;;;;;6.60;4.27;;;;;;;;;;5048015;28;20480;-74
2022/01/10 07:59:16;;;;;;;9.90;5.03;;;;;;;;;;5079593;28;20025;-75
2022/01/10 08:01:41;;;;;;;11.10;5.33;;;;;;;;;;5077857;28;20029;-74
2022/01/10 08:04:07;;;;;;;10.07;4.80;;;;;;;;;;5049012;28;20047;-73
2022/01/10 08:06:37;;;;;;;9.10;4.67;;;;;;;;;;5047873;28;20029;-74
2022/01/10 08:09:06;;;;;;;8.00;4.73;;;;;;;;;;5043784;28;20130;-72
2022/01/10 08:11:33;;;;;;;9.33;4.43;;;;;;;;;;5038199;28;20044;-74
2022/01/10 08:13:58;;;;;;;12.20;5.00;;;;;;;;;;5039682;28;20126;-74
2022/01/10 08:16:24;;;;;;;8.13;5.17;;;;;;;;;;5041493;28;20037;-74
2022/01/10 08:18:50;;;;;;;10.30;5.50;;;;;;;;;;5041506;28;20174;-74
2022/01/10 08:21:16;;;;;;;9.53;5.43;;;;;;;;;;5045199;28;20025;-74
2022/01/10 08:23:41;;;;;;;12.97;5.93;;;;;;;;;;5043280;28;20055;-73
2022/01/10 08:26:08;;;;;;;16.10;5.63;;;;;;;;;;5040731;28;20037;-73
2022/01/10 08:28:38;;;;;;;10.60;5.37;;;;;;;;;;5042623;28;20902;-73
2022/01/10 08:31:05;;;;;;;11.83;5.67;;;;;;;;;;5043941;28;20155;-74
2022/01/10 08:33:31;;;;;;;12.30;5.40;;;;;;;;;;5043360;28;20037;-74
2022/01/10 08:35:57;;;;;;;8.97;5.07;;;;;;;;;;5043116;28;20040;-75
2022/01/10 08:38:23;;;;;;;11.63;5.90;;;;;;;;;;5040473;28;20040;-75
2022/01/10 08:40:49;;;;;;;16.97;5.07;;;;;;;;;;5037027;28;20057;-73
2022/01/10 08:43:16;;;;;;;9.30;4.73;;;;;;;;;;5041577;28;20461;-73
2022/01/10 08:45:43;;;;;;;10.37;5.30;;;;;;;;;;5033391;28;20037;-74
2022/01/10 08:48:09;;;;;;;9.87;5.03;;;;;;;;;;5037018;28;20036;-73
2022/01/10 08:50:35;;;;;;;12.73;5.17;;;;;;;;;;5041375;28;20044;-74
2022/01/10 08:53:03;;;;;;;9.70;5.40;;;;;;;;;;5041287;28;20029;-73
2022/01/10 08:55:29;;;;;;;10.87;5.77;;;;;;;;;;5041388;28;20125;-74
2022/01/10 08:57:55;;;;;;;10.70;5.67;;;;;;;;;;5041940;28;20037;-74
2022/01/10 09:00:20;;;;;;;14.17;6.00;;;;;;;;;;5044042;28;20025;-73
2022/01/10 09:02:46;;;;;;;13.87;5.60;;;;;;;;;;5044471;28;20449;-73
2022/01/10 09:05:11;;;;;;;11.57;5.33;;;;;;;;;;5041564;28;20057;-74
2022/01/10 09:07:37;;;;;;;10.90;6.03;;;;;;;;;;5073459;28;20032;-72
2022/01/10 09:10:04;;;;;;;13.00;5.70;;;;;;;;;;5036923;28;20033;-72
2022/01/10 09:12:31;;;;;;;11.10;5.87;;;;;;;;;;5043639;28;20028;-73
2022/01/10 09:14:57;;;;;;;17.43;6.53;;;;;;;;;;5043290;28;20029;-72
2022/01/10 09:17:24;;;;;;;12.90;5.33;;;;;;;;;;5026510;28;20134;-74
2022/01/10 09:19:49;;;;;;;12.40;6.03;;;;;;;;;;5043955;28;20029;-74
2022/01/10 09:22:15;;;;;;;13.60;6.33;;;;;;;;;;5043328;28;20029;-73
2022/01/10 09:24:40;;;;;;;16.20;5.73;;;;;;;;;;5044465;28;20024;-74
2022/01/10 09:27:06;;;;;;;14.27;6.37;;;;;;;;;;5040960;28;20758;-74
2022/01/10 09:29:32;;;;;;;12.87;6.47;;;;;;;;;;5046429;28;20040;-74
2022/01/10 09:31:58;;;;;;;15.20;5.37;;;;;;;;;;5047642;28;20040;-73
2022/01/10 09:34:23;;;;;;;17.60;6.00;;;;;;;;;;5041105;28;20044;-73
2022/01/10 09:36:49;;;;;;;10.43;5.03;;;;;;;;;;5040013;28;20377;-75
2022/01/10 09:39:15;;;;;;;12.90;5.90;;;;;;;;;;5040626;28;20032;-72
2022/01/10 09:41:40;;;;;;;12.93;5.70;;;;;;;;;;5043735;28;20063;-74
2022/01/10 09:44:06;;;;;;;12.53;6.60;;;;;;;;;;5026331;28;20040;-74
2022/01/10 09:46:33;;;;;;;19.33;8.93;;;;;;;;;;5042003;28;20090;-73
2022/01/10 09:49:01;;;;;;;15.93;6.43;;;;;;;;;;5047737;28;20041;-73
2022/01/10 09:51:28;;;;;;;15.13;6.47;;;;;;;;;;5045357;28;20028;-74
2022/01/10 09:53:58;;;;;;;13.10;6.57;;;;;;;;;;5046697;28;20024;-73
2022/01/10 09:56:25;;;;;;;12.47;6.40;;;;;;;;;;5041101;28;20025;-73
2022/01/10 09:58:53;;;;;;;15.00;6.20;;;;;;;;;;5044590;28;20067;-74
2022/01/10 10:01:18;;;;;;;11.70;6.13;;;;;;;;;;5040751;28;20028;-74
2022/01/10 10:03:47;;;;;;;11.80;6.10;;;;;;;;;;5040766;28;20474;-74
2022/01/10 10:06:15;;;;;;;17.80;6.87;;;;;;;;;;5036073;28;20462;-74
2022/01/10 10:08:41;;;;;;;12.57;6.77;;;;;;;;;;5040984;28;20136;-74
2022/01/10 10:11:08;;;;;;;15.67;6.07;;;;;;;;;;5041350;28;20080;-74
2022/01/10 10:13:56;;;;;;;14.90;6.90;;;;;;;;;;5041442;28;20029;-74
2022/01/10 10:16:23;;;;;;;12.83;7.17;;;;;;;;;;5036642;28;20040;-73
2022/01/10 10:18:49;;;;;;;13.67;7.00;;;;;;;;;;5039971;28;20040;-74
2022/01/10 10:21:18;;;;;;;12.47;5.33;;;;;;;;;;5039661;28;20052;-76
2022/01/10 10:23:48;;;;;;;13.63;7.00;;;;;;;;;;5039465;28;20021;-74
2022/01/10 10:26:24;;;;;;;13.87;7.23;;;;;;;;;;5038715;28;20537;-74
2022/01/10 10:28:51;;;;;;;17.13;7.23;;;;;;;;;;5039617;28;20056;-73
2022/01/10 10:31:27;;;;;;;15.07;6.97;;;;;;;;;;5039063;28;20254;-73
2022/01/10 10:33:55;;;;;;;16.27;8.03;;;;;;;;;;5039886;28;20028;-74
2022/01/10 10:36:21;;;;;;;14.87;7.33;;;;;;;;;;5037630;28;20658;-75
2022/01/10 10:38:47;;;;;;;13.17;6.87;;;;;;;;;;5037881;28;20476;-73
2022/01/10 10:41:13;;;;;;;15.90;7.80;;;;;;;;;;5039037;28;20045;-74
2022/01/10 10:43:43;;;;;;;17.17;8.00;;;;;;;;;;5041182;28;20112;-74
2022/01/10 10:46:17;;;;;;;21.90;7.87;;;;;;;;;;5036447;28;20083;-74
2022/01/10 10:48:52;;;;;;;15.70;8.17;;;;;;;;;;5040030;28;20070;-74
2022/01/10 10:51:18;;;;;;;15.60;7.80;;;;;;;;;;5038477;28;20071;-75
2022/01/10 10:53:44;;;;;;;21.00;8.27;;;;;;;;;;5039005;28;20500;-74
2022/01/10 10:56:11;;;;;;;17.67;7.67;;;;;;;;;;5038943;28;20039;-74
2022/01/10 10:58:39;;;;;;;15.30;8.03;;;;;;;;;;5022359;28;20043;-73
2022/01/10 11:01:05;;;;;;;17.03;8.23;;;;;;;;;;5040703;28;20045;-74
2022/01/10 11:03:32;;;;;;;13.27;7.90;;;;;;;;;;5039451;28;20036;-73
2022/01/10 11:05:59;;;;;;;19.53;9.07;;;;;;;;;;5037447;28;20493;-75
2022/01/10 11:08:27;;;;;;;16.03;8.07;;;;;;;;;;5037326;28;20090;-73
2022/01/10 11:10:55;;;;;;;22.23;8.07;;;;;;;;;;5037994;28;20492;-74
2022/01/10 11:13:23;;;;;;;18.87;8.87;;;;;;;;;;5039634;28;20116;-74
2022/01/10 11:15:49;;;;;;;14.03;7.40;;;;;;;;;;5038067;28;20033;-75
2022/01/10 11:18:15;;;;;;;21.63;9.43;;;;;;;;;;5036544;28;20456;-73
2022/01/10 11:20:46;;;;;;;14.63;8.00;;;;;;;;;;5037057;28;20033;-75
2022/01/10 11:23:12;;;;;;;16.23;7.83;;;;;;;;;;5042733;28;20404;-73
2022/01/10 11:25:40;;;;;;;19.40;8.20;;;;;;;;;;5043223;28;20307;-74
2022/01/10 11:28:12;;;;;;;17.27;8.13;;;;;;;;;;5042064;28;20109;-74
2022/01/10 11:30:44;;;;;;;17.08;7.35;;;;;;;;;;5042796;28;20113;-74
2022/01/10 11:33:16;;;;;;;;;;;;;;;;;;5041506;28;20037;-73
2022/01/10 11:35:42;;;;;;;;;;;;;;;;;;5043379;28;19916;-73
2022/01/10 11:38:36;;;;;;;18.67;8.27;;;;;;;;;;5044222;28;20332;-73
2022/01/10 11:41:10;;;;;;;14.17;7.37;;;;;;;;;;5042578;28;20056;-74
2022/01/10 11:43:40;;;;;;;16.70;8.13;;;;;;;;;;5044211;28;20028;-73
2022/01/10 11:46:07;;;;;;;19.20;9.37;;;;;;;;;;5043281;28;20115;-75
2022/01/10 11:48:57;;;;;;;17.67;7.63;;;;;;;;;;5042022;28;20094;-74
2022/01/10 11:51:37;;;;;;;16.13;7.63;;;;;;;;;;5038357;28;20191;-74
2022/01/10 11:54:26;;;;;;;19.13;7.87;;;;;;;;;;5043784;28;20025;-74
2022/01/10 11:57:10;;;;;;;16.97;6.63;;;;;;;;;;5040854;28;20026;-74
2022/01/10 11:59:37;;;;;;;16.03;6.80;;;;;;;;;;5040693;28;20053;-73
2022/01/10 12:02:10;;;;;;;14.47;7.17;;;;;;;;;;5040196;28;20044;-73
2022/01/10 12:04:58;;;;;;;18.23;7.60;;;;;;;;;;5039892;28;20056;-75
2022/01/10 12:07:27;;;;;;;14.37;7.87;;;;;;;;;;5044209;28;20045;-76
2022/01/10 12:09:54;;;;;;;13.30;6.77;;;;;;;;;;5071499;28;20467;-72
2022/01/10 12:12:21;;;;;;;14.27;7.30;;;;;;;;;;5045987;28;20051;-74
2022/01/10 12:14:49;;;;;;;17.77;7.33;;;;;;;;;;5045197;28;20110;-74
2022/01/10 12:17:15;;;;;;;15.70;7.30;;;;;;;;;;5047255;28;20132;-75
2022/01/10 12:19:42;;;;;;;12.70;6.40;;;;;;;;;;5058615;28;20460;-73
2022/01/10 12:22:08;;;;;;;18.73;7.37;;;;;;;;;;5048195;28;20209;-75
2022/01/10 12:24:35;;;;;;;16.07;8.00;;;;;;;;;;5042875;28;20166;-75
2022/01/10 12:27:02;;;;;;;15.20;7.20;;;;;;;;;;5044921;28;20032;-73
2022/01/10 12:29:29;;;;;;;12.27;6.53;;;;;;;;;;5044901;28;20036;-73
2022/01/10 12:31:56;;;;;;;16.87;7.53;;;;;;;;;;5041566;28;20037;-73
2022/01/10 12:34:21;;;;;;;14.47;7.13;;;;;;;;;;5045769;28;20037;-73
2022/01/10 12:36:47;;;;;;;13.63;7.13;;;;;;;;;;5034475;28;20044;-71
2022/01/10 12:39:21;;;;;;;17.43;7.07;;;;;;;;;;5049868;28;20036;-72
2022/01/10 12:41:48;;;;;;;14.50;7.07;;;;;;;;;;5047370;28;20118;-73
2022/01/10 12:44:14;;;;;;;11.70;6.20;;;;;;;;;;5030187;28;20056;-72
2022/01/10 12:46:39;;;;;;;12.43;6.27;;;;;;;;;;5043481;28;20386;-72
2022/01/10 12:49:08;;;;;;;10.90;5.80;;;;;;;;;;5044550;28;20025;-74
2022/01/10 12:51:42;;;;;;;13.20;6.63;;;;;;;;;;5070304;28;20099;-72
2022/01/10 12:54:34;;;;;;;12.70;6.30;;;;;;;;;;5043352;28;20044;-72
2022/01/10 12:57:00;;;;;;;9.80;5.70;;;;;;;;;;5043192;28;20048;-74
2022/01/10 12:59:30;;;;;;;11.37;5.63;;;;;;;;;;5040892;28;20037;-72
2022/01/10 13:01:58;;;;;;;10.80;6.17;;;;;;;;;;5039745;28;20033;-74
2022/01/10 13:04:34;;;;;;;12.00;5.60;;;;;;;;;;5040488;28;20032;-73
2022/01/10 13:07:01;;;;;;;8.33;4.90;;;;;;;;;;5039126;28;20194;-73
2022/01/10 13:09:27;;;;;;;6.87;5.03;;;;;;;;;;5043465;28;20200;-71
2022/01/10 13:12:12;;;;;;;8.37;4.90;;;;;;;;;;5042526;28;20171;-73
2022/01/10 13:14:40;;;;;;;9.57;5.00;;;;;;;;;;5038425;28;20033;-73
2022/01/10 13:17:08;;;;;;;9.80;6.00;;;;;;;;;;5043869;28;20029;-73
2022/01/10 13:19:40;;;;;;;8.37;4.90;;;;;;;;;;5044621;28;20053;-72
2022/01/10 13:22:15;;;;;;;10.90;5.40;;;;;;;;;;5043656;28;20029;-73
2022/01/10 13:24:53;;;;;;;11.13;4.80;;;;;;;;;;5040985;28;20065;-72
2022/01/10 13:27:32;;;;;;;12.63;6.20;;;;;;;;;;5058446;28;20075;-72
2022/01/10 13:30:24;;;;;;;7.87;4.60;;;;;;;;;;5035017;28;20131;-75
2022/01/10 13:32:56;;;;;;;9.95;4.72;;;;;;;;;;5045687;28;20056;-76
2022/01/10 13:35:22;;;;;;;9.20;5.13;;;;;;;;;;5036700;28;20497;-72
2022/01/10 13:38:11;;;;;;;10.77;6.20;;;;;;;;;;5037829;28;20047;-72
2022/01/10 13:40:45;;;;;;;10.83;4.63;;;;;;;;;;5037532;28;20065;-74
2022/01/10 13:43:19;;;;;;;10.20;5.17;;;;;;;;;;5020737;28;20040;-72
2022/01/10 13:45:54;;;;;;;6.43;4.17;;;;;;;;;;5037854;28;20393;-73
2022/01/10 13:48:21;;;;;;;9.10;4.50;;;;;;;;;;5039235;28;20029;-73
2022/01/10 13:50:59;;;;;;;7.73;3.90;;;;;;;;;;5040431;28;20451;-72
2022/01/10 13:53:44;;;;;;;9.43;5.37;;;;;;;;;;5032880;28;20072;-72
2022/01/10 13:56:13;;;;;;;11.27;4.90;;;;;;;;;;5039151;28;20085;-71
2022/01/10 13:59:00;;;;;;;7.03;4.23;;;;;;;;;;5040385;28;20055;-72
2022/01/10 14:01:41;;;;;;;8.60;5.27;;;;;;;;;;5038572;28;20096;-73
2022/01/10 14:04:27;;;;;;;9.00;4.93;;;;;;;;;;5040033;28;20537;-74
2022/01/10 14:06:53;;;;;;;11.77;4.50;;;;;;;;;;5035038;28;20409;-74
2022/01/10 14:09:22;;;;;;;7.43;4.67;;;;;;;;;;5035239;28;20463;-73
2022/01/10 14:11:48;;;;;;;9.07;5.27;;;;;;;;;;5041298;28;20025;-73
2022/01/10 14:14:14;;;;;;;9.37;4.80;;;;;;;;;;5019950;28;20037;-73
2022/01/10 14:16:47;;;;;;;9.20;5.03;;;;;;;;;;5052193;28;20055;-74
2022/01/10 14:19:15;;;;;;;9.73;6.20;;;;;;;;;;5035364;28;20079;-74
2022/01/10 14:21:40;;;;;;;9.17;3.70;;;;;;;;;;5037860;28;20041;-71
2022/01/10 14:24:07;;;;;;;9.20;4.40;;;;;;;;;;5034814;28;20055;-72
2022/01/10 14:26:35;;;;;;;8.13;4.03;;;;;;;;;;5038906;28;20040;-73
2022/01/10 14:29:02;;;;;;;7.57;4.80;;;;;;;;;;5072834;28;20499;-73
2022/01/10 14:31:28;;;;;;;9.53;4.33;;;;;;;;;;5040077;28;20029;-71
2022/01/10 14:33:55;;;;;;;9.37;4.17;;;;;;;;;;5028793;28;20032;-75
2022/01/10 14:36:22;;;;;;;6.77;3.77;;;;;;;;;;5043124;28;20037;-73
2022/01/10 14:38:47;;;;;;;7.37;4.60;;;;;;;;;;5041442;28;20036;-73
2022/01/10 14:41:13;;;;;;;6.33;4.03;;;;;;;;;;5039303;28;20041;-73
2022/01/10 14:43:39;;;;;;;5.47;3.57;;;;;;;;;;5040496;28;20033;-70
2022/01/10 14:46:08;;;;;;;8.03;4.30;;;;;;;;;;5041179;28;20036;-73